sensor_id;sensor_type;location;lat;lon;timestamp;P1;durP1;ratioP1;P2;durP2;ratioP2
80187;SDS011;73735;52.134;5.436;2024-02-16T00:01:40;6.90;;;2.28;;
80187;SDS011;73735;52.134;5.436;2024-02-16T00:04:07;5.50;;;2.20;;
80187;SDS011;73735;52.134;5.436;2024-02-16T00:06:33;4.97;;;2.28;;
80187;SDS011;73735;52.134;5.436;2024-02-16T00:09:00;5.97;;;2.30;;
80187;SDS011;73735;52.134;5.436;2024-02-16T00:11:27;5.72;;;2.15;;
80187;SDS011;73735;52.134;5.436;2024-02-16T00:13:55;5.43;;;2.40;;
80187;SDS011;73735;52.134;5.436;2024-02-16T00:16:21;6.03;;;2.53;;
80187;SDS011;73735;52.134;5.436;2024-02-16T00:18:48;7.28;;;2.95;;
80187;SDS011;73735;52.134;5.436;2024-02-16T00:21:14;6.32;;;2.25;;
80187;SDS011;73735;52.134;5.436;2024-02-16T00:23:43;6.80;;;2.65;;
80187;SDS011;73735;52.134;5.436;2024-02-16T00:26:10;7.15;;;2.30;;
80187;SDS011;73735;52.134;5.436;2024-02-16T00:28:37;5.75;;;2.60;;
80187;SDS011;73735;52.134;5.436;2024-02-16T00:31:03;6.88;;;2.42;;
80187;SDS011;73735;52.134;5.436;2024-02-16T00:33:32;5.97;;;2.60;;
80187;SDS011;73735;52.134;5.436;2024-02-16T00:36:00;5.60;;;2.58;;
80187;SDS011;73735;52.134;5.436;2024-02-16T00:38:27;5.60;;;2.60;;
80187;SDS011;73735;52.134;5.436;2024-02-16T00:40:53;5.57;;;2.25;;
80187;SDS011;73735;52.134;5.436;2024-02-16T00:43:20;5.45;;;2.50;;
80187;SDS011;73735;52.134;5.436;2024-02-16T00:45:46;5.20;;;2.22;;
80187;SDS011;73735;52.134;5.436;2024-02-16T00:48:15;6.72;;;2.50;;
80187;SDS011;73735;52.134;5.436;2024-02-16T00:50:42;5.88;;;3.30;;
80187;SDS011;73735;52.134;5.436;2024-02-16T00:53:09;7.80;;;3.13;;
80187;SDS011;73735;52.134;5.436;2024-02-16T00:55:36;5.85;;;2.20;;
80187;SDS011;73735;52.134;5.436;2024-02-16T00:58:03;6.63;;;2.80;;
80187;SDS011;73735;52.134;5.436;2024-02-16T01:00:30;6.20;;;2.70;;
80187;SDS011;73735;52.134;5.436;2024-02-16T01:02:57;4.88;;;2.25;;
80187;SDS011;73735;52.134;5.436;2024-02-16T01:05:23;4.80;;;2.33;;
80187;SDS011;73735;52.134;5.436;2024-02-16T01:07:50;5.32;;;2.42;;
80187;SDS011;73735;52.134;5.436;2024-02-16T01:10:17;5.80;;;2.30;;
80187;SDS011;73735;52.134;5.436;2024-02-16T01:12:44;5.63;;;2.08;;
80187;SDS011;73735;52.134;5.436;2024-02-16T01:15:10;12.55;;;2.80;;
80187;SDS011;73735;52.134;5.436;2024-02-16T01:17:37;6.05;;;2.88;;
80187;SDS011;73735;52.134;5.436;2024-02-16T01:20:05;7.63;;;2.83;;
80187;SDS011;73735;52.134;5.436;2024-02-16T01:22:37;5.32;;;2.60;;
80187;SDS011;73735;52.134;5.436;2024-02-16T01:25:04;6.65;;;2.63;;
80187;SDS011;73735;52.134;5.436;2024-02-16T01:27:31;5.88;;;2.35;;
80187;SDS011;73735;52.134;5.436;2024-02-16T01:29:58;7.03;;;2.60;;
80187;SDS011;73735;52.134;5.436;2024-02-16T01:32:26;5.78;;;2.70;;
80187;SDS011;73735;52.134;5.436;2024-02-16T01:34:52;5.25;;;2.47;;
80187;SDS011;73735;52.134;5.436;2024-02-16T01:37:19;5.20;;;3.03;;
80187;SDS011;73735;52.134;5.436;2024-02-16T01:39:45;5.22;;;2.60;;
80187;SDS011;73735;52.134;5.436;2024-02-16T01:42:12;6.80;;;2.83;;
80187;SDS011;73735;52.134;5.436;2024-02-16T01:44:38;5.72;;;2.63;;
80187;SDS011;73735;52.134;5.436;2024-02-16T01:47:05;6.25;;;3.10;;
80187;SDS011;73735;52.134;5.436;2024-02-16T01:49:32;5.22;;;2.58;;
80187;SDS011;73735;52.134;5.436;2024-02-16T01:51:59;8.10;;;3.08;;
80187;SDS011;73735;52.134;5.436;2024-02-16T01:56:53;6.40;;;2.22;;
80187;SDS011;73735;52.134;5.436;2024-02-16T01:59:21;7.43;;;2.78;;
80187;SDS011;73735;52.134;5.436;2024-02-16T02:01:48;5.65;;;2.65;;
80187;SDS011;73735;52.134;5.436;2024-02-16T02:04:14;5.47;;;2.40;;
80187;SDS011;73735;52.134;5.436;2024-02-16T02:06:42;5.82;;;2.50;;
80187;SDS011;73735;52.134;5.436;2024-02-16T02:09:08;5.72;;;2.90;;
80187;SDS011;73735;52.134;5.436;2024-02-16T02:11:35;5.28;;;2.58;;
80187;SDS011;73735;52.134;5.436;2024-02-16T02:14:02;6.93;;;2.72;;
80187;SDS011;73735;52.134;5.436;2024-02-16T02:16:28;5.43;;;2.58;;
80187;SDS011;73735;52.134;5.436;2024-02-16T02:18:58;5.55;;;2.72;;
80187;SDS011;73735;52.134;5.436;2024-02-16T02:21:25;5.57;;;2.78;;
80187;SDS011;73735;52.134;5.436;2024-02-16T02:23:52;6.75;;;2.50;;
80187;SDS011;73735;52.134;5.436;2024-02-16T02:26:18;6.30;;;2.90;;
80187;SDS011;73735;52.134;5.436;2024-02-16T02:28:45;5.38;;;2.42;;
80187;SDS011;73735;52.134;5.436;2024-02-16T02:31:11;5.63;;;2.58;;
80187;SDS011;73735;52.134;5.436;2024-02-16T02:33:38;5.50;;;2.63;;
80187;SDS011;73735;52.134;5.436;2024-02-16T02:36:05;5.45;;;2.60;;
80187;SDS011;73735;52.134;5.436;2024-02-16T02:38:32;6.25;;;2.60;;
80187;SDS011;73735;52.134;5.436;2024-02-16T02:40:59;5.80;;;2.70;;
80187;SDS011;73735;52.134;5.436;2024-02-16T02:43:25;5.32;;;2.72;;
80187;SDS011;73735;52.134;5.436;2024-02-16T02:45:52;5.72;;;2.78;;
80187;SDS011;73735;52.134;5.436;2024-02-16T02:48:18;5.90;;;2.45;;
80187;SDS011;73735;52.134;5.436;2024-02-16T02:50:45;5.82;;;2.75;;
80187;SDS011;73735;52.134;5.436;2024-02-16T02:53:11;5.10;;;2.50;;
80187;SDS011;73735;52.134;5.436;2024-02-16T02:55:38;6.45;;;2.22;;
80187;SDS011;73735;52.134;5.436;2024-02-16T02:58:04;5.90;;;2.50;;
80187;SDS011;73735;52.134;5.436;2024-02-16T03:00:31;5.40;;;2.67;;
80187;SDS011;73735;52.134;5.436;2024-02-16T03:02:57;5.45;;;2.53;;
80187;SDS011;73735;52.134;5.436;2024-02-16T03:05:24;6.15;;;2.53;;
80187;SDS011;73735;52.134;5.436;2024-02-16T03:07:50;6.00;;;2.80;;
80187;SDS011;73735;52.134;5.436;2024-02-16T03:10:17;5.82;;;2.75;;
80187;SDS011;73735;52.134;5.436;2024-02-16T03:12:49;6.57;;;2.75;;
80187;SDS011;73735;52.134;5.436;2024-02-16T03:15:16;5.88;;;2.80;;
80187;SDS011;73735;52.134;5.436;2024-02-16T03:17:43;6.10;;;2.60;;
80187;SDS011;73735;52.134;5.436;2024-02-16T03:20:10;6.18;;;2.60;;
80187;SDS011;73735;52.134;5.436;2024-02-16T03:22:37;5.63;;;2.80;;
80187;SDS011;73735;52.134;5.436;2024-02-16T03:25:06;5.15;;;2.63;;
80187;SDS011;73735;52.134;5.436;2024-02-16T03:27:33;6.65;;;2.92;;
80187;SDS011;73735;52.134;5.436;2024-02-16T03:30:00;5.55;;;2.88;;
80187;SDS011;73735;52.134;5.436;2024-02-16T03:32:27;7.13;;;3.00;;
80187;SDS011;73735;52.134;5.436;2024-02-16T03:34:53;6.25;;;2.72;;
80187;SDS011;73735;52.134;5.436;2024-02-16T03:37:23;8.20;;;2.75;;
80187;SDS011;73735;52.134;5.436;2024-02-16T03:42:16;5.75;;;2.70;;
80187;SDS011;73735;52.134;5.436;2024-02-16T03:44:46;5.15;;;2.35;;
80187;SDS011;73735;52.134;5.436;2024-02-16T03:47:12;7.65;;;2.65;;
80187;SDS011;73735;52.134;5.436;2024-02-16T03:49:39;5.15;;;2.80;;
80187;SDS011;73735;52.134;5.436;2024-02-16T03:52:06;6.47;;;3.08;;
80187;SDS011;73735;52.134;5.436;2024-02-16T03:54:32;5.97;;;2.60;;
80187;SDS011;73735;52.134;5.436;2024-02-16T03:56:59;6.78;;;2.83;;
80187;SDS011;73735;52.134;5.436;2024-02-16T03:59:25;6.13;;;2.60;;
80187;SDS011;73735;52.134;5.436;2024-02-16T04:01:52;7.00;;;3.55;;
80187;SDS011;73735;52.134;5.436;2024-02-16T04:04:18;7.85;;;2.90;;
80187;SDS011;73735;52.134;5.436;2024-02-16T04:06:45;8.13;;;3.17;;
80187;SDS011;73735;52.134;5.436;2024-02-16T04:09:11;6.28;;;2.58;;
80187;SDS011;73735;52.134;5.436;2024-02-16T04:11:38;5.45;;;2.63;;
80187;SDS011;73735;52.134;5.436;2024-02-16T04:14:05;9.00;;;3.20;;
80187;SDS011;73735;52.134;5.436;2024-02-16T04:16:31;6.07;;;2.90;;
80187;SDS011;73735;52.134;5.436;2024-02-16T04:18:58;5.72;;;2.60;;
80187;SDS011;73735;52.134;5.436;2024-02-16T04:21:24;5.65;;;2.80;;
80187;SDS011;73735;52.134;5.436;2024-02-16T04:23:51;7.45;;;2.97;;
80187;SDS011;73735;52.134;5.436;2024-02-16T04:26:17;6.38;;;2.75;;
80187;SDS011;73735;52.134;5.436;2024-02-16T04:28:44;4.45;;;2.38;;
80187;SDS011;73735;52.134;5.436;2024-02-16T04:31:10;6.15;;;2.30;;
80187;SDS011;73735;52.134;5.436;2024-02-16T04:33:37;6.22;;;2.65;;
80187;SDS011;73735;52.134;5.436;2024-02-16T04:36:05;6.68;;;3.55;;
80187;SDS011;73735;52.134;5.436;2024-02-16T04:38:33;6.35;;;2.60;;
80187;SDS011;73735;52.134;5.436;2024-02-16T04:41:00;8.38;;;2.85;;
80187;SDS011;73735;52.134;5.436;2024-02-16T04:43:26;6.07;;;2.67;;
80187;SDS011;73735;52.134;5.436;2024-02-16T04:45:52;6.18;;;2.90;;
80187;SDS011;73735;52.134;5.436;2024-02-16T04:48:20;6.60;;;3.00;;
80187;SDS011;73735;52.134;5.436;2024-02-16T04:50:47;6.28;;;2.47;;
80187;SDS011;73735;52.134;5.436;2024-02-16T04:53:14;7.03;;;3.00;;
80187;SDS011;73735;52.134;5.436;2024-02-16T04:55:40;6.78;;;2.92;;
80187;SDS011;73735;52.134;5.436;2024-02-16T04:58:06;8.60;;;3.10;;
80187;SDS011;73735;52.134;5.436;2024-02-16T05:00:38;6.57;;;2.88;;
80187;SDS011;73735;52.134;5.436;2024-02-16T05:03:06;7.35;;;2.97;;
80187;SDS011;73735;52.134;5.436;2024-02-16T05:05:33;6.18;;;3.00;;
80187;SDS011;73735;52.134;5.436;2024-02-16T05:07:59;6.55;;;2.47;;
80187;SDS011;73735;52.134;5.436;2024-02-16T05:10:26;5.97;;;2.65;;
80187;SDS011;73735;52.134;5.436;2024-02-16T05:12:52;7.07;;;2.60;;
80187;SDS011;73735;52.134;5.436;2024-02-16T05:15:19;8.50;;;3.28;;
80187;SDS011;73735;52.134;5.436;2024-02-16T05:17:48;5.70;;;2.72;;
80187;SDS011;73735;52.134;5.436;2024-02-16T05:20:16;6.78;;;3.25;;
80187;SDS011;73735;52.134;5.436;2024-02-16T05:22:43;5.55;;;2.50;;
80187;SDS011;73735;52.134;5.436;2024-02-16T05:25:12;7.28;;;2.72;;
80187;SDS011;73735;52.134;5.436;2024-02-16T05:27:39;8.82;;;2.85;;
80187;SDS011;73735;52.134;5.436;2024-02-16T05:30:06;7.38;;;3.00;;
80187;SDS011;73735;52.134;5.436;2024-02-16T05:32:35;5.32;;;2.70;;
80187;SDS011;73735;52.134;5.436;2024-02-16T05:35:06;5.30;;;3.00;;
80187;SDS011;73735;52.134;5.436;2024-02-16T05:37:42;5.72;;;2.88;;
80187;SDS011;73735;52.134;5.436;2024-02-16T05:40:17;6.15;;;2.70;;
80187;SDS011;73735;52.134;5.436;2024-02-16T05:42:53;7.07;;;2.97;;
80187;SDS011;73735;52.134;5.436;2024-02-16T05:45:20;6.60;;;2.55;;
80187;SDS011;73735;52.134;5.436;2024-02-16T05:47:48;9.48;;;3.05;;
80187;SDS011;73735;52.134;5.436;2024-02-16T05:50:15;8.40;;;3.05;;
80187;SDS011;73735;52.134;5.436;2024-02-16T05:52:42;6.97;;;2.60;;
80187;SDS011;73735;52.134;5.436;2024-02-16T05:55:10;5.18;;;2.53;;
80187;SDS011;73735;52.134;5.436;2024-02-16T05:57:37;6.18;;;2.90;;
80187;SDS011;73735;52.134;5.436;2024-02-16T06:00:05;5.97;;;2.97;;
80187;SDS011;73735;52.134;5.436;2024-02-16T06:02:33;7.40;;;2.97;;
80187;SDS011;73735;52.134;5.436;2024-02-16T06:05:00;5.93;;;3.28;;
80187;SDS011;73735;52.134;5.436;2024-02-16T06:07:29;6.20;;;2.95;;
80187;SDS011;73735;52.134;5.436;2024-02-16T06:09:56;6.97;;;3.03;;
80187;SDS011;73735;52.134;5.436;2024-02-16T06:12:23;6.35;;;2.90;;
80187;SDS011;73735;52.134;5.436;2024-02-16T06:14:50;6.38;;;3.05;;
80187;SDS011;73735;52.134;5.436;2024-02-16T06:17:17;6.07;;;3.00;;
80187;SDS011;73735;52.134;5.436;2024-02-16T06:19:43;7.28;;;3.47;;
80187;SDS011;73735;52.134;5.436;2024-02-16T06:22:10;6.22;;;2.78;;
80187;SDS011;73735;52.134;5.436;2024-02-16T06:24:36;6.50;;;3.10;;
80187;SDS011;73735;52.134;5.436;2024-02-16T06:27:03;6.10;;;3.03;;
80187;SDS011;73735;52.134;5.436;2024-02-16T06:29:30;7.20;;;3.13;;
80187;SDS011;73735;52.134;5.436;2024-02-16T06:31:57;6.68;;;2.78;;
80187;SDS011;73735;52.134;5.436;2024-02-16T06:34:23;6.82;;;3.13;;
80187;SDS011;73735;52.134;5.436;2024-02-16T06:36:50;7.13;;;3.08;;
80187;SDS011;73735;52.134;5.436;2024-02-16T06:39:16;5.72;;;2.67;;
80187;SDS011;73735;52.134;5.436;2024-02-16T06:41:44;6.50;;;3.00;;
80187;SDS011;73735;52.134;5.436;2024-02-16T06:44:12;6.47;;;2.60;;
80187;SDS011;73735;52.134;5.436;2024-02-16T06:49:06;7.65;;;3.00;;
80187;SDS011;73735;52.134;5.436;2024-02-16T06:51:32;5.93;;;2.70;;
80187;SDS011;73735;52.134;5.436;2024-02-16T06:53:59;6.75;;;2.90;;
80187;SDS011;73735;52.134;5.436;2024-02-16T06:56:27;6.85;;;2.75;;
80187;SDS011;73735;52.134;5.436;2024-02-16T06:58:53;6.93;;;3.13;;
80187;SDS011;73735;52.134;5.436;2024-02-16T07:01:20;6.30;;;3.00;;
80187;SDS011;73735;52.134;5.436;2024-02-16T07:03:46;5.68;;;2.85;;
80187;SDS011;73735;52.134;5.436;2024-02-16T07:06:13;8.00;;;3.10;;
80187;SDS011;73735;52.134;5.436;2024-02-16T07:08:40;6.72;;;2.83;;
80187;SDS011;73735;52.134;5.436;2024-02-16T07:11:07;7.75;;;2.60;;
80187;SDS011;73735;52.134;5.436;2024-02-16T07:13:34;6.53;;;3.03;;
80187;SDS011;73735;52.134;5.436;2024-02-16T07:16:01;6.90;;;3.13;;
80187;SDS011;73735;52.134;5.436;2024-02-16T07:18:27;6.78;;;3.10;;
80187;SDS011;73735;52.134;5.436;2024-02-16T07:20:54;8.35;;;2.88;;
80187;SDS011;73735;52.134;5.436;2024-02-16T07:23:20;6.13;;;2.90;;
80187;SDS011;73735;52.134;5.436;2024-02-16T07:25:47;8.10;;;2.80;;
80187;SDS011;73735;52.134;5.436;2024-02-16T07:28:15;6.47;;;2.88;;
80187;SDS011;73735;52.134;5.436;2024-02-16T07:30:41;5.30;;;3.03;;
80187;SDS011;73735;52.134;5.436;2024-02-16T07:33:09;5.80;;;2.83;;
80187;SDS011;73735;52.134;5.436;2024-02-16T07:35:36;6.47;;;2.72;;
80187;SDS011;73735;52.134;5.436;2024-02-16T07:38:04;6.82;;;2.97;;
80187;SDS011;73735;52.134;5.436;2024-02-16T07:40:31;6.43;;;3.13;;
80187;SDS011;73735;52.134;5.436;2024-02-16T07:42:58;7.32;;;3.55;;
80187;SDS011;73735;52.134;5.436;2024-02-16T07:45:24;7.80;;;2.75;;
80187;SDS011;73735;52.134;5.436;2024-02-16T07:47:51;5.32;;;2.90;;
80187;SDS011;73735;52.134;5.436;2024-02-16T07:50:18;6.75;;;3.17;;
80187;SDS011;73735;52.134;5.436;2024-02-16T07:52:46;6.07;;;2.80;;
80187;SDS011;73735;52.134;5.436;2024-02-16T07:55:14;7.10;;;3.25;;
80187;SDS011;73735;52.134;5.436;2024-02-16T07:57:40;7.13;;;3.00;;
80187;SDS011;73735;52.134;5.436;2024-02-16T08:00:07;7.00;;;2.72;;
80187;SDS011;73735;52.134;5.436;2024-02-16T08:02:37;6.60;;;3.28;;
80187;SDS011;73735;52.134;5.436;2024-02-16T08:05:05;6.90;;;3.28;;
80187;SDS011;73735;52.134;5.436;2024-02-16T08:07:34;7.53;;;3.20;;
80187;SDS011;73735;52.134;5.436;2024-02-16T08:10:01;7.00;;;3.08;;
80187;SDS011;73735;52.134;5.436;2024-02-16T08:12:28;6.90;;;2.92;;
80187;SDS011;73735;52.134;5.436;2024-02-16T08:14:57;7.57;;;2.72;;
80187;SDS011;73735;52.134;5.436;2024-02-16T08:17:26;5.93;;;3.05;;
80187;SDS011;73735;52.134;5.436;2024-02-16T08:19:53;6.25;;;3.05;;
80187;SDS011;73735;52.134;5.436;2024-02-16T08:22:20;6.93;;;2.85;;
80187;SDS011;73735;52.134;5.436;2024-02-16T08:24:50;6.80;;;3.25;;
80187;SDS011;73735;52.134;5.436;2024-02-16T08:27:18;5.55;;;2.83;;
80187;SDS011;73735;52.134;5.436;2024-02-16T08:29:45;7.88;;;2.88;;
80187;SDS011;73735;52.134;5.436;2024-02-16T08:32:11;7.28;;;2.80;;
80187;SDS011;73735;52.134;5.436;2024-02-16T08:34:38;7.75;;;3.40;;
80187;SDS011;73735;52.134;5.436;2024-02-16T08:37:05;7.15;;;3.15;;
80187;SDS011;73735;52.134;5.436;2024-02-16T08:39:32;7.25;;;2.67;;
80187;SDS011;73735;52.134;5.436;2024-02-16T08:42:01;8.20;;;2.92;;
80187;SDS011;73735;52.134;5.436;2024-02-16T08:44:28;6.18;;;2.80;;
80187;SDS011;73735;52.134;5.436;2024-02-16T08:46:54;7.22;;;3.55;;
80187;SDS011;73735;52.134;5.436;2024-02-16T08:49:21;7.20;;;3.28;;
80187;SDS011;73735;52.134;5.436;2024-02-16T08:51:47;6.93;;;3.20;;
80187;SDS011;73735;52.134;5.436;2024-02-16T08:54:14;7.70;;;3.17;;
80187;SDS011;73735;52.134;5.436;2024-02-16T08:56:41;8.63;;;3.70;;
80187;SDS011;73735;52.134;5.436;2024-02-16T08:59:07;6.15;;;3.20;;
80187;SDS011;73735;52.134;5.436;2024-02-16T09:01:34;7.18;;;3.17;;
80187;SDS011;73735;52.134;5.436;2024-02-16T09:04:02;5.00;;;3.10;;
80187;SDS011;73735;52.134;5.436;2024-02-16T09:08:56;8.40;;;3.35;;
80187;SDS011;73735;52.134;5.436;2024-02-16T09:11:23;7.95;;;3.17;;
80187;SDS011;73735;52.134;5.436;2024-02-16T09:13:50;6.95;;;2.85;;
80187;SDS011;73735;52.134;5.436;2024-02-16T09:16:17;7.63;;;3.60;;
80187;SDS011;73735;52.134;5.436;2024-02-16T09:18:47;8.15;;;3.17;;
80187;SDS011;73735;52.134;5.436;2024-02-16T09:21:14;7.72;;;3.45;;
80187;SDS011;73735;52.134;5.436;2024-02-16T09:23:41;6.85;;;3.38;;
80187;SDS011;73735;52.134;5.436;2024-02-16T09:26:08;6.80;;;3.15;;
80187;SDS011;73735;52.134;5.436;2024-02-16T09:28:38;11.38;;;3.40;;
80187;SDS011;73735;52.134;5.436;2024-02-16T09:31:06;6.25;;;3.40;;
80187;SDS011;73735;52.134;5.436;2024-02-16T09:33:34;9.25;;;4.00;;
80187;SDS011;73735;52.134;5.436;2024-02-16T09:36:01;7.43;;;3.90;;
80187;SDS011;73735;52.134;5.436;2024-02-16T09:38:28;6.82;;;3.30;;
80187;SDS011;73735;52.134;5.436;2024-02-16T09:40:54;6.90;;;3.83;;
80187;SDS011;73735;52.134;5.436;2024-02-16T09:43:24;10.30;;;4.10;;
80187;SDS011;73735;52.134;5.436;2024-02-16T09:45:55;8.40;;;3.80;;
80187;SDS011;73735;52.134;5.436;2024-02-16T09:48:23;7.95;;;3.65;;
80187;SDS011;73735;52.134;5.436;2024-02-16T09:50:56;8.85;;;4.22;;
80187;SDS011;73735;52.134;5.436;2024-02-16T09:55:53;8.57;;;3.85;;
80187;SDS011;73735;52.134;5.436;2024-02-16T09:58:20;9.20;;;4.88;;
80187;SDS011;73735;52.134;5.436;2024-02-16T10:03:21;7.47;;;3.63;;
80187;SDS011;73735;52.134;5.436;2024-02-16T10:06:04;7.47;;;3.47;;
80187;SDS011;73735;52.134;5.436;2024-02-16T10:08:33;8.88;;;4.35;;
80187;SDS011;73735;52.134;5.436;2024-02-16T10:11:04;8.88;;;3.92;;
80187;SDS011;73735;52.134;5.436;2024-02-16T10:13:33;9.60;;;3.97;;
80187;SDS011;73735;52.134;5.436;2024-02-16T10:16:06;8.65;;;4.10;;
80187;SDS011;73735;52.134;5.436;2024-02-16T10:18:38;11.30;;;4.03;;
80187;SDS011;73735;52.134;5.436;2024-02-16T10:23:32;9.88;;;4.15;;
80187;SDS011;73735;52.134;5.436;2024-02-16T10:26:01;9.30;;;4.05;;
80187;SDS011;73735;52.134;5.436;2024-02-16T10:28:28;7.20;;;3.70;;
80187;SDS011;73735;52.134;5.436;2024-02-16T10:30:57;8.02;;;4.15;;
80187;SDS011;73735;52.134;5.436;2024-02-16T10:33:28;10.13;;;4.28;;
80187;SDS011;73735;52.134;5.436;2024-02-16T10:35:56;7.97;;;4.25;;
80187;SDS011;73735;52.134;5.436;2024-02-16T10:38:23;8.23;;;4.60;;
80187;SDS011;73735;52.134;5.436;2024-02-16T10:40:51;9.27;;;4.63;;
80187;SDS011;73735;52.134;5.436;2024-02-16T10:43:17;7.70;;;4.13;;
80187;SDS011;73735;52.134;5.436;2024-02-16T10:45:45;11.50;;;4.90;;
80187;SDS011;73735;52.134;5.436;2024-02-16T10:48:13;8.93;;;4.75;;
80187;SDS011;73735;52.134;5.436;2024-02-16T10:50:42;8.50;;;4.70;;
80187;SDS011;73735;52.134;5.436;2024-02-16T10:53:09;8.68;;;4.72;;
80187;SDS011;73735;52.134;5.436;2024-02-16T10:55:43;8.80;;;4.93;;
80187;SDS011;73735;52.134;5.436;2024-02-16T11:00:47;8.60;;;4.70;;
80187;SDS011;73735;52.134;5.436;2024-02-16T11:03:21;9.60;;;4.68;;
80187;SDS011;73735;52.134;5.436;2024-02-16T11:05:52;9.95;;;4.80;;
80187;SDS011;73735;52.134;5.436;2024-02-16T11:08:20;11.50;;;5.20;;
80187;SDS011;73735;52.134;5.436;2024-02-16T11:11:02;9.98;;;5.40;;
80187;SDS011;73735;52.134;5.436;2024-02-16T11:13:32;11.80;;;5.75;;
80187;SDS011;73735;52.134;5.436;2024-02-16T11:16:05;9.00;;;5.55;;
80187;SDS011;73735;52.134;5.436;2024-02-16T11:18:42;11.23;;;5.38;;
80187;SDS011;73735;52.134;5.436;2024-02-16T11:21:16;11.57;;;6.35;;
80187;SDS011;73735;52.134;5.436;2024-02-16T11:23:44;9.25;;;5.95;;
80187;SDS011;73735;52.134;5.436;2024-02-16T11:26:11;11.80;;;6.18;;
80187;SDS011;73735;52.134;5.436;2024-02-16T11:28:42;9.40;;;5.35;;
80187;SDS011;73735;52.134;5.436;2024-02-16T11:31:09;9.02;;;5.20;;
80187;SDS011;73735;52.134;5.436;2024-02-16T11:33:35;10.45;;;5.05;;
80187;SDS011;73735;52.134;5.436;2024-02-16T11:36:03;9.73;;;5.50;;
80187;SDS011;73735;52.134;5.436;2024-02-16T11:38:31;10.98;;;5.60;;
80187;SDS011;73735;52.134;5.436;2024-02-16T11:41:05;9.90;;;5.35;;
80187;SDS011;73735;52.134;5.436;2024-02-16T11:43:35;8.95;;;5.03;;
80187;SDS011;73735;52.134;5.436;2024-02-16T11:46:12;9.95;;;5.43;;
80187;SDS011;73735;52.134;5.436;2024-02-16T11:48:39;9.80;;;5.38;;
80187;SDS011;73735;52.134;5.436;2024-02-16T11:51:06;9.75;;;5.45;;
80187;SDS011;73735;52.134;5.436;2024-02-16T11:53:33;9.02;;;5.50;;
80187;SDS011;73735;52.134;5.436;2024-02-16T11:56:00;9.90;;;5.35;;
80187;SDS011;73735;52.134;5.436;2024-02-16T11:58:26;9.23;;;5.60;;
80187;SDS011;73735;52.134;5.436;2024-02-16T12:00:54;11.60;;;5.70;;
80187;SDS011;73735;52.134;5.436;2024-02-16T12:03:26;11.18;;;5.82;;
80187;SDS011;73735;52.134;5.436;2024-02-16T12:05:55;9.52;;;5.65;;
80187;SDS011;73735;52.134;5.436;2024-02-16T12:08:23;11.02;;;6.00;;
80187;SDS011;73735;52.134;5.436;2024-02-16T12:10:51;12.63;;;6.25;;
80187;SDS011;73735;52.134;5.436;2024-02-16T12:13:18;10.20;;;5.80;;
80187;SDS011;73735;52.134;5.436;2024-02-16T12:15:46;9.98;;;5.70;;
80187;SDS011;73735;52.134;5.436;2024-02-16T12:18:23;12.30;;;5.80;;
80187;SDS011;73735;52.134;5.436;2024-02-16T12:20:58;12.23;;;6.28;;
80187;SDS011;73735;52.134;5.436;2024-02-16T12:23:29;10.85;;;5.85;;
80187;SDS011;73735;52.134;5.436;2024-02-16T12:25:59;10.82;;;5.10;;
80187;SDS011;73735;52.134;5.436;2024-02-16T12:28:26;11.30;;;5.72;;
80187;SDS011;73735;52.134;5.436;2024-02-16T12:30:55;10.07;;;5.05;;
80187;SDS011;73735;52.134;5.436;2024-02-16T12:33:25;9.45;;;5.20;;
80187;SDS011;73735;52.134;5.436;2024-02-16T12:35:52;8.73;;;4.68;;
80187;SDS011;73735;52.134;5.436;2024-02-16T12:38:20;7.93;;;4.40;;
80187;SDS011;73735;52.134;5.436;2024-02-16T12:40:46;9.25;;;4.35;;
80187;SDS011;73735;52.134;5.436;2024-02-16T12:43:13;7.82;;;4.45;;
80187;SDS011;73735;52.134;5.436;2024-02-16T12:45:40;5.65;;;3.05;;
80187;SDS011;73735;52.134;5.436;2024-02-16T12:48:08;4.93;;;2.40;;
80187;SDS011;73735;52.134;5.436;2024-02-16T12:50:39;5.97;;;2.58;;
80187;SDS011;73735;52.134;5.436;2024-02-16T12:53:08;6.13;;;2.20;;
80187;SDS011;73735;52.134;5.436;2024-02-16T12:58:02;4.18;;;1.88;;
80187;SDS011;73735;52.134;5.436;2024-02-16T13:00:29;4.38;;;2.03;;
80187;SDS011;73735;52.134;5.436;2024-02-16T13:02:56;5.10;;;2.20;;
80187;SDS011;73735;52.134;5.436;2024-02-16T13:05:22;5.10;;;1.90;;
80187;SDS011;73735;52.134;5.436;2024-02-16T13:07:49;4.90;;;2.00;;
80187;SDS011;73735;52.134;5.436;2024-02-16T13:12:43;5.55;;;1.75;;
80187;SDS011;73735;52.134;5.436;2024-02-16T13:15:10;4.72;;;2.00;;
80187;SDS011;73735;52.134;5.436;2024-02-16T13:17:53;4.75;;;1.83;;
80187;SDS011;73735;52.134;5.436;2024-02-16T13:20:19;5.32;;;2.00;;
80187;SDS011;73735;52.134;5.436;2024-02-16T13:22:46;5.65;;;2.20;;
80187;SDS011;73735;52.134;5.436;2024-02-16T13:25:12;4.57;;;2.13;;
80187;SDS011;73735;52.134;5.436;2024-02-16T13:27:39;5.05;;;1.80;;
80187;SDS011;73735;52.134;5.436;2024-02-16T13:30:06;4.13;;;2.20;;
80187;SDS011;73735;52.134;5.436;2024-02-16T13:32:33;5.13;;;2.03;;
80187;SDS011;73735;52.134;5.436;2024-02-16T13:35:03;5.70;;;2.33;;
80187;SDS011;73735;52.134;5.436;2024-02-16T13:37:29;5.90;;;2.10;;
80187;SDS011;73735;52.134;5.436;2024-02-16T13:39:56;5.60;;;2.78;;
80187;SDS011;73735;52.134;5.436;2024-02-16T13:42:22;5.95;;;2.20;;
80187;SDS011;73735;52.134;5.436;2024-02-16T13:44:49;6.93;;;2.42;;
80187;SDS011;73735;52.134;5.436;2024-02-16T13:47:15;4.68;;;2.10;;
80187;SDS011;73735;52.134;5.436;2024-02-16T13:49:45;5.07;;;2.47;;
80187;SDS011;73735;52.134;5.436;2024-02-16T13:52:13;6.10;;;2.28;;
80187;SDS011;73735;52.134;5.436;2024-02-16T13:54:40;5.55;;;2.58;;
80187;SDS011;73735;52.134;5.436;2024-02-16T13:57:06;5.28;;;2.45;;
80187;SDS011;73735;52.134;5.436;2024-02-16T13:59:33;5.63;;;2.20;;
80187;SDS011;73735;52.134;5.436;2024-02-16T14:02:00;5.28;;;2.20;;
80187;SDS011;73735;52.134;5.436;2024-02-16T14:04:27;4.35;;;2.05;;
80187;SDS011;73735;52.134;5.436;2024-02-16T14:06:55;4.40;;;2.10;;
80187;SDS011;73735;52.134;5.436;2024-02-16T14:09:21;4.78;;;1.90;;
80187;SDS011;73735;52.134;5.436;2024-02-16T14:11:58;4.78;;;2.00;;
80187;SDS011;73735;52.134;5.436;2024-02-16T14:19:29;5.00;;;2.00;;
80187;SDS011;73735;52.134;5.436;2024-02-16T14:21:56;4.20;;;1.98;;
80187;SDS011;73735;52.134;5.436;2024-02-16T14:24:23;3.95;;;1.88;;
80187;SDS011;73735;52.134;5.436;2024-02-16T14:26:49;4.97;;;2.38;;
80187;SDS011;73735;52.134;5.436;2024-02-16T14:29:20;4.90;;;2.20;;
80187;SDS011;73735;52.134;5.436;2024-02-16T14:31:46;5.43;;;2.30;;
80187;SDS011;73735;52.134;5.436;2024-02-16T14:34:15;4.78;;;1.92;;
80187;SDS011;73735;52.134;5.436;2024-02-16T14:36:41;5.40;;;2.40;;
80187;SDS011;73735;52.134;5.436;2024-02-16T14:39:08;5.80;;;2.20;;
80187;SDS011;73735;52.134;5.436;2024-02-16T14:41:35;5.40;;;2.30;;
80187;SDS011;73735;52.134;5.436;2024-02-16T14:44:01;6.30;;;2.70;;
80187;SDS011;73735;52.134;5.436;2024-02-16T14:46:29;6.07;;;2.75;;
80187;SDS011;73735;52.134;5.436;2024-02-16T14:48:55;5.72;;;3.00;;
80187;SDS011;73735;52.134;5.436;2024-02-16T14:51:22;5.00;;;2.30;;
80187;SDS011;73735;52.134;5.436;2024-02-16T14:53:48;5.78;;;2.47;;
80187;SDS011;73735;52.134;5.436;2024-02-16T14:56:15;6.18;;;2.70;;
80187;SDS011;73735;52.134;5.436;2024-02-16T14:58:45;7.03;;;2.97;;
80187;SDS011;73735;52.134;5.436;2024-02-16T15:01:11;4.85;;;2.40;;
80187;SDS011;73735;52.134;5.436;2024-02-16T15:03:38;5.03;;;2.25;;
80187;SDS011;73735;52.134;5.436;2024-02-16T15:06:05;5.15;;;2.40;;
80187;SDS011;73735;52.134;5.436;2024-02-16T15:08:32;4.88;;;2.60;;
80187;SDS011;73735;52.134;5.436;2024-02-16T15:10:59;5.93;;;2.80;;
80187;SDS011;73735;52.134;5.436;2024-02-16T15:13:25;5.15;;;2.35;;
80187;SDS011;73735;52.134;5.436;2024-02-16T15:15:53;6.07;;;2.40;;
80187;SDS011;73735;52.134;5.436;2024-02-16T15:18:21;7.25;;;2.80;;
80187;SDS011;73735;52.134;5.436;2024-02-16T15:20:47;5.88;;;2.95;;